sensor_id;sensor_type;location;lat;lon;timestamp;P1;durP1;ratioP1;P2;durP2;ratioP2
48733;SDS011;34530;52.084;5.146;2022-09-29T00:02:21;1.95;;;1.50;;
48733;SDS011;34530;52.084;5.146;2022-09-29T00:04:47;1.90;;;1.48;;
48733;SDS011;34530;52.084;5.146;2022-09-29T00:07:12;2.42;;;1.67;;
48733;SDS011;34530;52.084;5.146;2022-09-29T00:09:38;2.92;;;1.67;;
48733;SDS011;34530;52.084;5.146;2022-09-29T00:12:04;2.65;;;1.70;;
48733;SDS011;34530;52.084;5.146;2022-09-29T00:14:29;3.20;;;1.77;;
48733;SDS011;34530;52.084;5.146;2022-09-29T00:16:55;1.48;;;1.15;;
48733;SDS011;34530;52.084;5.146;2022-09-29T00:19:21;2.67;;;1.55;;
48733;SDS011;34530;52.084;5.146;2022-09-29T00:21:46;1.80;;;1.38;;
48733;SDS011;34530;52.084;5.146;2022-09-29T00:24:12;2.75;;;1.63;;
48733;SDS011;34530;52.084;5.146;2022-09-29T00:26:37;2.08;;;1.30;;
48733;SDS011;34530;52.084;5.146;2022-09-29T00:29:03;2.22;;;1.50;;
48733;SDS011;34530;52.084;5.146;2022-09-29T00:31:30;1.98;;;1.42;;
48733;SDS011;34530;52.084;5.146;2022-09-29T00:33:57;2.55;;;1.50;;
48733;SDS011;34530;52.084;5.146;2022-09-29T00:36:23;1.85;;;1.50;;
48733;SDS011;34530;52.084;5.146;2022-09-29T00:38:49;2.00;;;1.33;;
48733;SDS011;34530;52.084;5.146;2022-09-29T00:41:20;2.03;;;1.58;;
48733;SDS011;34530;52.084;5.146;2022-09-29T00:43:58;1.55;;;1.33;;
48733;SDS011;34530;52.084;5.146;2022-09-29T00:51:48;3.38;;;1.77;;
48733;SDS011;34530;52.084;5.146;2022-09-29T00:54:31;1.58;;;1.30;;
48733;SDS011;34530;52.084;5.146;2022-09-29T00:57:04;1.50;;;1.33;;
48733;SDS011;34530;52.084;5.146;2022-09-29T00:59:34;1.98;;;1.40;;
48733;SDS011;34530;52.084;5.146;2022-09-29T01:02:06;1.95;;;1.20;;
48733;SDS011;34530;52.084;5.146;2022-09-29T01:04:33;2.15;;;1.50;;
48733;SDS011;34530;52.084;5.146;2022-09-29T01:06:59;1.65;;;1.50;;
48733;SDS011;34530;52.084;5.146;2022-09-29T01:09:26;1.70;;;1.50;;
48733;SDS011;34530;52.084;5.146;2022-09-29T01:11:56;2.30;;;1.60;;
48733;SDS011;34530;52.084;5.146;2022-09-29T01:14:23;2.00;;;1.33;;
48733;SDS011;34530;52.084;5.146;2022-09-29T01:16:50;1.75;;;1.40;;
48733;SDS011;34530;52.084;5.146;2022-09-29T01:19:18;1.83;;;1.30;;
48733;SDS011;34530;52.084;5.146;2022-09-29T01:22:00;1.90;;;1.40;;
48733;SDS011;34530;52.084;5.146;2022-09-29T01:24:38;2.03;;;1.60;;
48733;SDS011;34530;52.084;5.146;2022-09-29T01:32:51;1.50;;;1.25;;
48733;SDS011;34530;52.084;5.146;2022-09-29T01:44:12;2.05;;;1.50;;
48733;SDS011;34530;52.084;5.146;2022-09-29T01:46:51;1.58;;;1.30;;
48733;SDS011;34530;52.084;5.146;2022-09-29T01:49:20;2.20;;;1.50;;
48733;SDS011;34530;52.084;5.146;2022-09-29T01:51:59;1.50;;;1.40;;
48733;SDS011;34530;52.084;5.146;2022-09-29T01:57:13;1.70;;;1.60;;
48733;SDS011;34530;52.084;5.146;2022-09-29T02:02:16;1.80;;;1.40;;
48733;SDS011;34530;52.084;5.146;2022-09-29T02:04:50;2.25;;;1.42;;
48733;SDS011;34530;52.084;5.146;2022-09-29T02:07:26;1.88;;;1.38;;
48733;SDS011;34530;52.084;5.146;2022-09-29T02:10:04;2.00;;;1.60;;
48733;SDS011;34530;52.084;5.146;2022-09-29T02:12:36;2.17;;;1.65;;
48733;SDS011;34530;52.084;5.146;2022-09-29T02:15:04;1.95;;;1.40;;
48733;SDS011;34530;52.084;5.146;2022-09-29T02:17:35;1.63;;;1.38;;
48733;SDS011;34530;52.084;5.146;2022-09-29T02:20:02;1.88;;;1.50;;
48733;SDS011;34530;52.084;5.146;2022-09-29T02:22:29;1.85;;;1.40;;
48733;SDS011;34530;52.084;5.146;2022-09-29T02:24:55;1.92;;;1.73;;
48733;SDS011;34530;52.084;5.146;2022-09-29T02:27:23;2.00;;;1.23;;
48733;SDS011;34530;52.084;5.146;2022-09-29T02:29:51;1.70;;;1.42;;
48733;SDS011;34530;52.084;5.146;2022-09-29T02:32:17;2.03;;;1.40;;
48733;SDS011;34530;52.084;5.146;2022-09-29T02:34:44;1.73;;;1.30;;
48733;SDS011;34530;52.084;5.146;2022-09-29T02:42:44;2.58;;;1.40;;
48733;SDS011;34530;52.084;5.146;2022-09-29T02:53:30;1.40;;;1.30;;
48733;SDS011;34530;52.084;5.146;2022-09-29T02:59:19;1.52;;;1.42;;
48733;SDS011;34530;52.084;5.146;2022-09-29T03:01:17;1.55;;;1.30;;
48733;SDS011;34530;52.084;5.146;2022-09-29T03:03:43;1.25;;;1.15;;
48733;SDS011;34530;52.084;5.146;2022-09-29T03:06:09;1.42;;;1.33;;
48733;SDS011;34530;52.084;5.146;2022-09-29T03:08:36;1.73;;;1.23;;
48733;SDS011;34530;52.084;5.146;2022-09-29T03:11:01;1.38;;;1.20;;
48733;SDS011;34530;52.084;5.146;2022-09-29T03:13:27;1.10;;;1.00;;
48733;SDS011;34530;52.084;5.146;2022-09-29T03:15:53;1.88;;;1.30;;
48733;SDS011;34530;52.084;5.146;2022-09-29T03:18:18;2.13;;;1.58;;
48733;SDS011;34530;52.084;5.146;2022-09-29T03:20:46;1.77;;;1.23;;
48733;SDS011;34530;52.084;5.146;2022-09-29T03:23:12;1.45;;;1.35;;
48733;SDS011;34530;52.084;5.146;2022-09-29T03:25:37;1.50;;;1.20;;
48733;SDS011;34530;52.084;5.146;2022-09-29T03:28:03;1.38;;;1.27;;
48733;SDS011;34530;52.084;5.146;2022-09-29T03:30:28;2.17;;;1.67;;
48733;SDS011;34530;52.084;5.146;2022-09-29T03:32:54;1.27;;;1.15;;
48733;SDS011;34530;52.084;5.146;2022-09-29T03:35:19;1.95;;;1.40;;
48733;SDS011;34530;52.084;5.146;2022-09-29T03:37:45;1.40;;;1.30;;
48733;SDS011;34530;52.084;5.146;2022-09-29T03:40:11;1.55;;;1.20;;
48733;SDS011;34530;52.084;5.146;2022-09-29T03:42:36;1.25;;;1.15;;
48733;SDS011;34530;52.084;5.146;2022-09-29T03:45:02;2.22;;;1.45;;
48733;SDS011;34530;52.084;5.146;2022-09-29T03:47:28;1.60;;;1.20;;
48733;SDS011;34530;52.084;5.146;2022-09-29T03:49:54;1.13;;;1.10;;
48733;SDS011;34530;52.084;5.146;2022-09-29T03:52:19;1.77;;;1.52;;
48733;SDS011;34530;52.084;5.146;2022-09-29T03:54:45;1.70;;;1.52;;
48733;SDS011;34530;52.084;5.146;2022-09-29T03:57:10;1.55;;;1.27;;
48733;SDS011;34530;52.084;5.146;2022-09-29T03:59:36;1.65;;;1.30;;
48733;SDS011;34530;52.084;5.146;2022-09-29T04:02:02;2.00;;;1.42;;
48733;SDS011;34530;52.084;5.146;2022-09-29T04:04:28;2.22;;;1.55;;
48733;SDS011;34530;52.084;5.146;2022-09-29T04:06:53;1.55;;;1.45;;
48733;SDS011;34530;52.084;5.146;2022-09-29T04:09:19;1.40;;;1.30;;
48733;SDS011;34530;52.084;5.146;2022-09-29T04:11:44;1.65;;;1.17;;
48733;SDS011;34530;52.084;5.146;2022-09-29T04:14:10;1.63;;;1.52;;
48733;SDS011;34530;52.084;5.146;2022-09-29T04:16:36;1.30;;;1.20;;
48733;SDS011;34530;52.084;5.146;2022-09-29T04:19:01;1.40;;;1.30;;
48733;SDS011;34530;52.084;5.146;2022-09-29T04:21:27;1.40;;;1.30;;
48733;SDS011;34530;52.084;5.146;2022-09-29T04:23:52;1.33;;;1.23;;
48733;SDS011;34530;52.084;5.146;2022-09-29T04:26:18;1.90;;;1.40;;
48733;SDS011;34530;52.084;5.146;2022-09-29T04:28:44;1.60;;;1.30;;
48733;SDS011;34530;52.084;5.146;2022-09-29T04:31:10;1.42;;;1.33;;
48733;SDS011;34530;52.084;5.146;2022-09-29T04:33:36;1.55;;;1.45;;
48733;SDS011;34530;52.084;5.146;2022-09-29T04:36:03;1.42;;;1.33;;
48733;SDS011;34530;52.084;5.146;2022-09-29T04:38:29;1.63;;;1.42;;
48733;SDS011;34530;52.084;5.146;2022-09-29T04:40:55;1.50;;;1.40;;
48733;SDS011;34530;52.084;5.146;2022-09-29T04:43:21;1.95;;;1.50;;
48733;SDS011;34530;52.084;5.146;2022-09-29T04:45:47;1.70;;;1.48;;
48733;SDS011;34530;52.084;5.146;2022-09-29T04:48:12;2.00;;;1.58;;
48733;SDS011;34530;52.084;5.146;2022-09-29T04:50:38;1.23;;;1.10;;
48733;SDS011;34530;52.084;5.146;2022-09-29T04:53:04;1.20;;;1.10;;
48733;SDS011;34530;52.084;5.146;2022-09-29T04:55:30;1.30;;;1.20;;
48733;SDS011;34530;52.084;5.146;2022-09-29T04:57:56;1.60;;;1.40;;
48733;SDS011;34530;52.084;5.146;2022-09-29T05:00:21;1.35;;;1.25;;
48733;SDS011;34530;52.084;5.146;2022-09-29T05:02:47;1.50;;;1.30;;
48733;SDS011;34530;52.084;5.146;2022-09-29T05:05:13;1.40;;;1.27;;
48733;SDS011;34530;52.084;5.146;2022-09-29T05:07:39;1.75;;;1.40;;
48733;SDS011;34530;52.084;5.146;2022-09-29T05:10:05;1.75;;;1.55;;
48733;SDS011;34530;52.084;5.146;2022-09-29T05:12:32;1.40;;;1.30;;
48733;SDS011;34530;52.084;5.146;2022-09-29T05:14:57;1.70;;;1.60;;
48733;SDS011;34530;52.084;5.146;2022-09-29T05:17:23;1.35;;;1.25;;
48733;SDS011;34530;52.084;5.146;2022-09-29T05:19:49;1.52;;;1.42;;
48733;SDS011;34530;52.084;5.146;2022-09-29T05:22:14;1.88;;;1.48;;
48733;SDS011;34530;52.084;5.146;2022-09-29T05:24:40;1.40;;;1.30;;
48733;SDS011;34530;52.084;5.146;2022-09-29T05:27:06;1.60;;;1.45;;
48733;SDS011;34530;52.084;5.146;2022-09-29T05:29:31;1.45;;;1.30;;
48733;SDS011;34530;52.084;5.146;2022-09-29T05:31:57;1.30;;;1.20;;
48733;SDS011;34530;52.084;5.146;2022-09-29T05:34:23;1.55;;;1.33;;
48733;SDS011;34530;52.084;5.146;2022-09-29T05:36:48;1.77;;;1.50;;
48733;SDS011;34530;52.084;5.146;2022-09-29T05:39:14;2.25;;;1.58;;
48733;SDS011;34530;52.084;5.146;2022-09-29T05:41:41;1.95;;;1.45;;
48733;SDS011;34530;52.084;5.146;2022-09-29T05:44:06;2.15;;;1.73;;
48733;SDS011;34530;52.084;5.146;2022-09-29T05:46:32;2.38;;;1.65;;
48733;SDS011;34530;52.084;5.146;2022-09-29T05:49:05;2.72;;;2.08;;
48733;SDS011;34530;52.084;5.146;2022-09-29T05:51:31;2.80;;;2.10;;
48733;SDS011;34530;52.084;5.146;2022-09-29T05:53:57;2.40;;;1.88;;
48733;SDS011;34530;52.084;5.146;2022-09-29T05:56:23;3.28;;;2.20;;
48733;SDS011;34530;52.084;5.146;2022-09-29T05:58:50;10.02;;;2.20;;
48733;SDS011;34530;52.084;5.146;2022-09-29T06:01:20;3.10;;;2.05;;
48733;SDS011;34530;52.084;5.146;2022-09-29T06:03:47;3.05;;;1.95;;
48733;SDS011;34530;52.084;5.146;2022-09-29T06:06:15;2.67;;;2.00;;
48733;SDS011;34530;52.084;5.146;2022-09-29T06:08:46;2.97;;;2.13;;
48733;SDS011;34530;52.084;5.146;2022-09-29T06:11:13;3.95;;;2.42;;
48733;SDS011;34530;52.084;5.146;2022-09-29T06:13:44;3.15;;;2.30;;
48733;SDS011;34530;52.084;5.146;2022-09-29T06:16:13;3.28;;;2.35;;
48733;SDS011;34530;52.084;5.146;2022-09-29T06:18:39;2.40;;;2.20;;
48733;SDS011;34530;52.084;5.146;2022-09-29T06:21:09;2.40;;;2.20;;
48733;SDS011;34530;52.084;5.146;2022-09-29T06:23:43;3.63;;;2.70;;
48733;SDS011;34530;52.084;5.146;2022-09-29T06:26:10;3.60;;;2.47;;
48733;SDS011;34530;52.084;5.146;2022-09-29T06:28:38;3.50;;;2.30;;
48733;SDS011;34530;52.084;5.146;2022-09-29T06:31:10;3.50;;;2.40;;
48733;SDS011;34530;52.084;5.146;2022-09-29T06:33:38;3.70;;;2.20;;
48733;SDS011;34530;52.084;5.146;2022-09-29T06:36:08;2.72;;;2.03;;
48733;SDS011;34530;52.084;5.146;2022-09-29T06:39:04;3.63;;;2.40;;
48733;SDS011;34530;52.084;5.146;2022-09-29T06:41:32;2.50;;;2.17;;
48733;SDS011;34530;52.084;5.146;2022-09-29T06:43:58;3.95;;;2.67;;
48733;SDS011;34530;52.084;5.146;2022-09-29T06:46:23;2.72;;;2.22;;
48733;SDS011;34530;52.084;5.146;2022-09-29T06:48:51;2.83;;;2.20;;
48733;SDS011;34530;52.084;5.146;2022-09-29T06:51:19;3.28;;;2.45;;
48733;SDS011;34530;52.084;5.146;2022-09-29T06:53:47;3.20;;;2.25;;
48733;SDS011;34530;52.084;5.146;2022-09-29T06:56:13;2.70;;;2.45;;
48733;SDS011;34530;52.084;5.146;2022-09-29T06:58:39;3.50;;;2.45;;
48733;SDS011;34530;52.084;5.146;2022-09-29T07:01:05;3.55;;;2.40;;
48733;SDS011;34530;52.084;5.146;2022-09-29T07:03:30;5.57;;;2.90;;
48733;SDS011;34530;52.084;5.146;2022-09-29T07:06:00;8.85;;;4.13;;
48733;SDS011;34530;52.084;5.146;2022-09-29T07:08:26;8.07;;;4.05;;
48733;SDS011;34530;52.084;5.146;2022-09-29T07:10:52;12.25;;;4.00;;
48733;SDS011;34530;52.084;5.146;2022-09-29T07:13:19;13.05;;;4.10;;
48733;SDS011;34530;52.084;5.146;2022-09-29T07:15:44;10.40;;;4.43;;
48733;SDS011;34530;52.084;5.146;2022-09-29T07:18:12;15.55;;;4.28;;
48733;SDS011;34530;52.084;5.146;2022-09-29T07:20:38;14.75;;;4.40;;
48733;SDS011;34530;52.084;5.146;2022-09-29T07:23:04;10.80;;;4.07;;
48733;SDS011;34530;52.084;5.146;2022-09-29T07:25:32;14.77;;;4.63;;
48733;SDS011;34530;52.084;5.146;2022-09-29T07:27:58;11.52;;;4.32;;
48733;SDS011;34530;52.084;5.146;2022-09-29T07:30:25;9.02;;;3.95;;
48733;SDS011;34530;52.084;5.146;2022-09-29T07:32:54;9.93;;;4.13;;
48733;SDS011;34530;52.084;5.146;2022-09-29T07:35:20;10.50;;;3.88;;
48733;SDS011;34530;52.084;5.146;2022-09-29T07:37:50;9.80;;;3.55;;
48733;SDS011;34530;52.084;5.146;2022-09-29T07:40:16;11.43;;;4.60;;
48733;SDS011;34530;52.084;5.146;2022-09-29T07:42:42;10.32;;;3.83;;
48733;SDS011;34530;52.084;5.146;2022-09-29T07:45:07;10.15;;;4.43;;
48733;SDS011;34530;52.084;5.146;2022-09-29T07:47:33;10.73;;;4.03;;
48733;SDS011;34530;52.084;5.146;2022-09-29T07:49:59;6.45;;;4.13;;
48733;SDS011;34530;52.084;5.146;2022-09-29T07:52:24;6.20;;;3.67;;
48733;SDS011;34530;52.084;5.146;2022-09-29T07:54:50;8.43;;;3.65;;
48733;SDS011;34530;52.084;5.146;2022-09-29T07:57:15;7.32;;;3.60;;
48733;SDS011;34530;52.084;5.146;2022-09-29T07:59:41;7.30;;;3.88;;
48733;SDS011;34530;52.084;5.146;2022-09-29T08:02:06;9.32;;;4.45;;
48733;SDS011;34530;52.084;5.146;2022-09-29T08:04:33;8.57;;;3.88;;
48733;SDS011;34530;52.084;5.146;2022-09-29T08:06:59;7.47;;;3.85;;
48733;SDS011;34530;52.084;5.146;2022-09-29T08:09:24;6.28;;;3.90;;
48733;SDS011;34530;52.084;5.146;2022-09-29T08:11:50;9.25;;;4.35;;
48733;SDS011;34530;52.084;5.146;2022-09-29T08:14:15;6.13;;;3.90;;
48733;SDS011;34530;52.084;5.146;2022-09-29T08:16:41;6.22;;;3.90;;
48733;SDS011;34530;52.084;5.146;2022-09-29T08:19:06;10.70;;;3.92;;
48733;SDS011;34530;52.084;5.146;2022-09-29T08:21:32;8.13;;;3.83;;
48733;SDS011;34530;52.084;5.146;2022-09-29T08:24:01;6.07;;;3.55;;
48733;SDS011;34530;52.084;5.146;2022-09-29T08:26:28;10.15;;;3.67;;
48733;SDS011;34530;52.084;5.146;2022-09-29T08:28:56;7.35;;;4.22;;
48733;SDS011;34530;52.084;5.146;2022-09-29T08:31:22;6.32;;;3.72;;
48733;SDS011;34530;52.084;5.146;2022-09-29T08:33:48;5.30;;;3.80;;
48733;SDS011;34530;52.084;5.146;2022-09-29T08:36:15;9.35;;;4.30;;
48733;SDS011;34530;52.084;5.146;2022-09-29T08:38:42;9.07;;;4.18;;
48733;SDS011;34530;52.084;5.146;2022-09-29T08:41:20;7.50;;;4.20;;
48733;SDS011;34530;52.084;5.146;2022-09-29T08:43:53;6.07;;;3.72;;
48733;SDS011;34530;52.084;5.146;2022-09-29T08:46:49;8.70;;;4.35;;
48733;SDS011;34530;52.084;5.146;2022-09-29T08:49:23;5.53;;;3.88;;
48733;SDS011;34530;52.084;5.146;2022-09-29T08:51:57;5.30;;;3.95;;
48733;SDS011;34530;52.084;5.146;2022-09-29T08:54:30;8.30;;;5.10;;
48733;SDS011;34530;52.084;5.146;2022-09-29T08:56:59;8.20;;;4.70;;
48733;SDS011;34530;52.084;5.146;2022-09-29T08:59:26;7.80;;;4.65;;
48733;SDS011;34530;52.084;5.146;2022-09-29T09:07:59;9.18;;;5.00;;
48733;SDS011;34530;52.084;5.146;2022-09-29T09:10:42;7.63;;;5.22;;
48733;SDS011;34530;52.084;5.146;2022-09-29T09:15:49;8.15;;;5.05;;
48733;SDS011;34530;52.084;5.146;2022-09-29T09:21:13;8.60;;;5.18;;
48733;SDS011;34530;52.084;5.146;2022-09-29T09:23:52;7.85;;;5.20;;
48733;SDS011;34530;52.084;5.146;2022-09-29T09:26:31;9.45;;;5.50;;
48733;SDS011;34530;52.084;5.146;2022-09-29T09:29:05;8.02;;;5.35;;
48733;SDS011;34530;52.084;5.146;2022-09-29T09:31:40;8.95;;;5.10;;
48733;SDS011;34530;52.084;5.146;2022-09-29T09:34:41;7.82;;;5.55;;
48733;SDS011;34530;52.084;5.146;2022-09-29T09:37:06;7.97;;;5.57;;
48733;SDS011;34530;52.084;5.146;2022-09-29T09:39:41;9.18;;;5.60;;
48733;SDS011;34530;52.084;5.146;2022-09-29T09:42:14;7.80;;;5.53;;
48733;SDS011;34530;52.084;5.146;2022-09-29T09:44:55;7.93;;;5.60;;
48733;SDS011;34530;52.084;5.146;2022-09-29T09:47:25;8.57;;;5.85;;
48733;SDS011;34530;52.084;5.146;2022-09-29T09:50:00;11.30;;;6.07;;
48733;SDS011;34530;52.084;5.146;2022-09-29T09:52:38;9.32;;;5.25;;
48733;SDS011;34530;52.084;5.146;2022-09-29T09:55:25;9.40;;;5.55;;
48733;SDS011;34530;52.084;5.146;2022-09-29T10:00:59;9.38;;;6.25;;
48733;SDS011;34530;52.084;5.146;2022-09-29T10:03:27;7.63;;;5.75;;
48733;SDS011;34530;52.084;5.146;2022-09-29T10:05:53;9.43;;;5.95;;
48733;SDS011;34530;52.084;5.146;2022-09-29T10:10:49;8.88;;;6.03;;
48733;SDS011;34530;52.084;5.146;2022-09-29T10:13:15;7.78;;;5.97;;
48733;SDS011;34530;52.084;5.146;2022-09-29T10:15:49;7.88;;;5.32;;
48733;SDS011;34530;52.084;5.146;2022-09-29T10:18:27;7.53;;;5.53;;
48733;SDS011;34530;52.084;5.146;2022-09-29T10:21:00;8.90;;;5.40;;
48733;SDS011;34530;52.084;5.146;2022-09-29T10:23:27;7.18;;;5.80;;
48733;SDS011;34530;52.084;5.146;2022-09-29T10:26:15;7.18;;;5.60;;
48733;SDS011;34530;52.084;5.146;2022-09-29T10:31:17;6.82;;;5.45;;
48733;SDS011;34530;52.084;5.146;2022-09-29T10:33:50;8.32;;;5.68;;
48733;SDS011;34530;52.084;5.146;2022-09-29T10:36:19;8.90;;;6.10;;
48733;SDS011;34530;52.084;5.146;2022-09-29T10:38:48;7.10;;;5.63;;
48733;SDS011;34530;52.084;5.146;2022-09-29T10:41:16;5.80;;;5.20;;
48733;SDS011;34530;52.084;5.146;2022-09-29T10:43:44;8.20;;;5.50;;
48733;SDS011;34530;52.084;5.146;2022-09-29T10:49:23;8.43;;;5.70;;
48733;SDS011;34530;52.084;5.146;2022-09-29T10:51:58;7.10;;;5.85;;
48733;SDS011;34530;52.084;5.146;2022-09-29T10:54:27;8.68;;;5.78;;
48733;SDS011;34530;52.084;5.146;2022-09-29T10:56:56;6.88;;;5.57;;
48733;SDS011;34530;52.084;5.146;2022-09-29T10:59:23;7.40;;;5.55;;
48733;SDS011;34530;52.084;5.146;2022-09-29T11:01:51;7.68;;;5.90;;
48733;SDS011;34530;52.084;5.146;2022-09-29T11:04:24;7.03;;;5.85;;
48733;SDS011;34530;52.084;5.146;2022-09-29T11:06:55;7.57;;;5.45;;
48733;SDS011;34530;52.084;5.146;2022-09-29T11:09:34;8.73;;;6.40;;
48733;SDS011;34530;52.084;5.146;2022-09-29T11:12:11;6.53;;;5.53;;
48733;SDS011;34530;52.084;5.146;2022-09-29T11:14:52;9.90;;;5.55;;
48733;SDS011;34530;52.084;5.146;2022-09-29T11:17:28;6.55;;;5.25;;
48733;SDS011;34530;52.084;5.146;2022-09-29T11:20:12;7.07;;;5.60;;
48733;SDS011;34530;52.084;5.146;2022-09-29T11:33:28;7.10;;;5.30;;
48733;SDS011;34530;52.084;5.146;2022-09-29T11:42:14;7.80;;;5.00;;
48733;SDS011;34530;52.084;5.146;2022-09-29T11:48:01;7.05;;;5.40;;
48733;SDS011;34530;52.084;5.146;2022-09-29T11:53:10;7.90;;;4.88;;
48733;SDS011;34530;52.084;5.146;2022-09-29T11:55:52;7.35;;;4.88;;
48733;SDS011;34530;52.084;5.146;2022-09-29T12:03:34;7.20;;;5.18;;
48733;SDS011;34530;52.084;5.146;2022-09-29T12:09:15;5.45;;;4.45;;
48733;SDS011;34530;52.084;5.146;2022-09-29T12:14:19;5.47;;;4.60;;
48733;SDS011;34530;52.084;5.146;2022-09-29T12:17:03;5.63;;;4.60;;
48733;SDS011;34530;52.084;5.146;2022-09-29T12:19:39;9.27;;;4.85;;
48733;SDS011;34530;52.084;5.146;2022-09-29T12:22:08;5.72;;;4.75;;
48733;SDS011;34530;52.084;5.146;2022-09-29T12:24:42;5.50;;;4.63;;
48733;SDS011;34530;52.084;5.146;2022-09-29T12:27:15;4.95;;;4.50;;
48733;SDS011;34530;52.084;5.146;2022-09-29T12:29:43;6.07;;;4.80;;
48733;SDS011;34530;52.084;5.146;2022-09-29T12:32:16;6.03;;;4.18;;
48733;SDS011;34530;52.084;5.146;2022-09-29T12:34:52;6.15;;;4.38;;
48733;SDS011;34530;52.084;5.146;2022-09-29T12:37:51;6.88;;;4.20;;
48733;SDS011;34530;52.084;5.146;2022-09-29T12:40:31;7.22;;;4.28;;
48733;SDS011;34530;52.084;5.146;2022-09-29T12:43:16;5.28;;;4.32;;
48733;SDS011;34530;52.084;5.146;2022-09-29T12:56:37;5.20;;;3.90;;
48733;SDS011;34530;52.084;5.146;2022-09-29T12:59:05;5.97;;;4.03;;
48733;SDS011;34530;52.084;5.146;2022-09-29T13:01:40;7.07;;;4.20;;
48733;SDS011;34530;52.084;5.146;2022-09-29T13:15:32;5.32;;;3.55;;
48733;SDS011;34530;52.084;5.146;2022-09-29T13:23:40;7.13;;;3.42;;
48733;SDS011;34530;52.084;5.146;2022-09-29T13:26:39;4.85;;;3.55;;
48733;SDS011;34530;52.084;5.146;2022-09-29T13:29:16;4.38;;;3.38;;
48733;SDS011;34530;52.084;5.146;2022-09-29T13:31:46;3.97;;;3.45;;
48733;SDS011;34530;52.084;5.146;2022-09-29T13:34:32;4.13;;;3.38;;
48733;SDS011;34530;52.084;5.146;2022-09-29T13:37:19;6.20;;;3.90;;
48733;SDS011;34530;52.084;5.146;2022-09-29T13:39:51;5.03;;;3.28;;
48733;SDS011;34530;52.084;5.146;2022-09-29T13:42:41;3.88;;;3.22;;
48733;SDS011;34530;52.084;5.146;2022-09-29T13:50:51;4.80;;;3.72;;
48733;SDS011;34530;52.084;5.146;2022-09-29T13:58:34;3.70;;;2.83;;
48733;SDS011;34530;52.084;5.146;2022-09-29T14:01:01;3.22;;;2.92;;
48733;SDS011;34530;52.084;5.146;2022-09-29T14:08:34;3.53;;;2.78;;
48733;SDS011;34530;52.084;5.146;2022-09-29T14:21:58;3.10;;;2.67;;
48733;SDS011;34530;52.084;5.146;2022-09-29T14:27:16;3.45;;;3.00;;
48733;SDS011;34530;52.084;5.146;2022-09-29T14:29:48;3.30;;;2.65;;
48733;SDS011;34530;52.084;5.146;2022-09-29T14:32:18;3.47;;;2.75;;
48733;SDS011;34530;52.084;5.146;2022-09-29T14:34:47;5.47;;;3.00;;
48733;SDS011;34530;52.084;5.146;2022-09-29T14:37:18;3.47;;;2.65;;
48733;SDS011;34530;52.084;5.146;2022-09-29T14:39:47;4.65;;;3.05;;
48733;SDS011;34530;52.084;5.146;2022-09-29T14:42:33;3.28;;;2.97;;
48733;SDS011;34530;52.084;5.146;2022-09-29T14:45:00;3.47;;;3.15;;
48733;SDS011;34530;52.084;5.146;2022-09-29T14:48:07;2.72;;;2.45;;
48733;SDS011;34530;52.084;5.146;2022-09-29T14:51:10;3.05;;;2.75;;
48733;SDS011;34530;52.084;5.146;2022-09-29T14:54:17;3.22;;;2.58;;
48733;SDS011;34530;52.084;5.146;2022-09-29T14:57:01;3.05;;;2.75;;
48733;SDS011;34530;52.084;5.146;2022-09-29T15:05:11;3.17;;;2.55;;
48733;SDS011;34530;52.084;5.146;2022-09-29T15:07:45;2.78;;;2.58;;
48733;SDS011;34530;52.084;5.146;2022-09-29T15:10:31;2.47;;;2.13;;
48733;SDS011;34530;52.084;5.146;2022-09-29T15:13:23;3.08;;;2.78;;
48733;SDS011;34530;52.084;5.146;2022-09-29T15:15:57;2.35;;;2.15;;
48733;SDS011;34530;52.084;5.146;2022-09-29T15:18:41;2.58;;;2.38;;
48733;SDS011;34530;52.084;5.146;2022-09-29T15:26:39;2.75;;;2.50;;
48733;SDS011;34530;52.084;5.146;2022-09-29T15:29:05;2.45;;;2.25;;
48733;SDS011;34530;52.084;5.146;2022-09-29T15:31:32;2.90;;;2.60;;
48733;SDS011;34530;52.084;5.146;2022-09-29T15:33:59;2.60;;;2.40;;
48733;SDS011;34530;52.084;5.146;2022-09-29T15:36:29;2.58;;;2.22;;
48733;SDS011;34530;52.084;5.146;2022-09-29T15:39:06;2.30;;;2.10;;
48733;SDS011;34530;52.084;5.146;2022-09-29T15:41:47;2.42;;;2.20;;
48733;SDS011;34530;52.084;5.146;2022-09-29T15:44:25;2.25;;;2.05;;
48733;SDS011;34530;52.084;5.146;2022-09-29T15:46:55;2.67;;;2.20;;
48733;SDS011;34530;52.084;5.146;2022-09-29T15:49:22;1.90;;;1.80;;
48733;SDS011;34530;52.084;5.146;2022-09-29T15:51:59;2.78;;;1.85;;
48733;SDS011;34530;52.084;5.146;2022-09-29T15:54:30;2.30;;;2.08;;
48733;SDS011;34530;52.084;5.146;2022-09-29T15:56:58;2.22;;;2.03;;
48733;SDS011;34530;52.084;5.146;2022-09-29T15:59:45;2.33;;;2.13;;
48733;SDS011;34530;52.084;5.146;2022-09-29T16:05:19;2.35;;;2.13;;
48733;SDS011;34530;52.084;5.146;2022-09-29T16:07:48;2.38;;;2.17;;
48733;SDS011;34530;52.084;5.146;2022-09-29T16:10:29;2.78;;;2.20;;
48733;SDS011;34530;52.084;5.146;2022-09-29T16:12:57;2.03;;;1.92;;
48733;SDS011;34530;52.084;5.146;2022-09-29T16:15:31;2.00;;;1.90;;
48733;SDS011;34530;52.084;5.146;2022-09-29T16:18:08;2.30;;;1.75;;
48733;SDS011;34530;52.084;5.146;2022-09-29T16:20:40;2.47;;;1.98;;
48733;SDS011;34530;52.084;5.146;2022-09-29T16:23:08;2.08;;;1.80;;
48733;SDS011;34530;52.084;5.146;2022-09-29T16:26:07;2.55;;;2.10;;
48733;SDS011;34530;52.084;5.146;2022-09-29T16:28:38;2.08;;;1.80;;
48733;SDS011;34530;52.084;5.146;2022-09-29T16:31:09;2.28;;;2.00;;
48733;SDS011;34530;52.084;5.146;2022-09-29T16:33:43;1.80;;;1.70;;
48733;SDS011;34530;52.084;5.146;2022-09-29T16:36:16;1.92;;;1.73;;
48733;SDS011;34530;52.084;5.146;2022-09-29T16:38:44;2.20;;;2.00;;
48733;SDS011;34530;52.084;5.146;2022-09-29T16:44:21;1.88;;;1.77;;
48733;SDS011;34530;52.084;5.146;2022-09-29T16:49:42;2.13;;;2.00;;
48733;SDS011;34530;52.084;5.146;2022-09-29T16:55:18;1.90;;;1.70;;
48733;SDS011;34530;52.084;5.146;2022-09-29T16:57:56;2.75;;;1.55;;
48733;SDS011;34530;52.084;5.146;2022-09-29T17:00:26;1.77;;;1.67;;
48733;SDS011;34530;52.084;5.146;2022-09-29T17:02:52;2.08;;;1.65;;
48733;SDS011;34530;52.084;5.146;2022-09-29T17:05:25;1.50;;;1.40;;
48733;SDS011;34530;52.084;5.146;2022-09-29T17:08:01;2.00;;;1.73;;
48733;SDS011;34530;52.084;5.146;2022-09-29T17:10:28;2.28;;;2.03;;
48733;SDS011;34530;52.084;5.146;2022-09-29T17:12:54;1.60;;;1.50;;
48733;SDS011;34530;52.084;5.146;2022-09-29T17:15:19;1.63;;;1.52;;
48733;SDS011;34530;52.084;5.146;2022-09-29T17:17:46;1.50;;;1.40;;
48733;SDS011;34530;52.084;5.146;2022-09-29T17:20:15;2.35;;;1.75;;
48733;SDS011;34530;52.084;5.146;2022-09-29T17:22:43;1.98;;;1.75;;
48733;SDS011;34530;52.084;5.146;2022-09-29T17:25:09;1.90;;;1.73;;
48733;SDS011;34530;52.084;5.146;2022-09-29T17:27:35;1.73;;;1.33;;
48733;SDS011;34530;52.084;5.146;2022-09-29T17:30:21;1.73;;;1.60;;
48733;SDS011;34530;52.084;5.146;2022-09-29T17:32:48;1.95;;;1.73;;
48733;SDS011;34530;52.084;5.146;2022-09-29T17:35:17;2.33;;;1.90;;
48733;SDS011;34530;52.084;5.146;2022-09-29T17:37:44;1.73;;;1.63;;
48733;SDS011;34530;52.084;5.146;2022-09-29T17:40:15;1.70;;;1.60;;
48733;SDS011;34530;52.084;5.146;2022-09-29T17:42:46;2.30;;;1.70;;
48733;SDS011;34530;52.084;5.146;2022-09-29T17:45:16;1.65;;;1.55;;
48733;SDS011;34530;52.084;5.146;2022-09-29T17:47:44;1.70;;;1.60;;
48733;SDS011;34530;52.084;5.146;2022-09-29T17:50:15;1.67;;;1.58;;
48733;SDS011;34530;52.084;5.146;2022-09-29T17:52:44;1.65;;;1.55;;
48733;SDS011;34530;52.084;5.146;2022-09-29T17:55:09;1.75;;;1.42;;
48733;SDS011;34530;52.084;5.146;2022-09-29T17:57:35;1.80;;;1.70;;
48733;SDS011;34530;52.084;5.146;2022-09-29T18:00:02;1.70;;;1.60;;
48733;SDS011;34530;52.084;5.146;2022-09-29T18:02:49;1.80;;;1.45;;
48733;SDS011;34530;52.084;5.146;2022-09-29T18:05:15;1.48;;;1.38;;
48733;SDS011;34530;52.084;5.146;2022-09-29T18:07:47;1.50;;;1.40;;